sensor_id;sensor_type;location;lat;lon;timestamp;P1;durP1;ratioP1;P2;durP2;ratioP2
6642;SDS011;3357;48.050;7.800;2023-05-10T00:01:23;0.83;;;0.70;;
6642;SDS011;3357;48.050;7.800;2023-05-10T00:03:48;0.73;;;0.73;;
6642;SDS011;3357;48.050;7.800;2023-05-10T00:06:14;0.90;;;0.73;;
6642;SDS011;3357;48.050;7.800;2023-05-10T00:08:39;0.80;;;0.73;;
6642;SDS011;3357;48.050;7.800;2023-05-10T00:11:04;7.57;;;0.80;;
6642;SDS011;3357;48.050;7.800;2023-05-10T00:13:29;1.13;;;0.80;;
6642;SDS011;3357;48.050;7.800;2023-05-10T00:15:55;3.43;;;0.73;;
6642;SDS011;3357;48.050;7.800;2023-05-10T00:18:20;0.60;;;0.60;;
6642;SDS011;3357;48.050;7.800;2023-05-10T00:20:45;0.53;;;0.53;;
6642;SDS011;3357;48.050;7.800;2023-05-10T00:23:11;0.70;;;0.70;;
6642;SDS011;3357;48.050;7.800;2023-05-10T00:25:37;0.60;;;0.60;;
6642;SDS011;3357;48.050;7.800;2023-05-10T00:28:02;0.60;;;0.57;;
6642;SDS011;3357;48.050;7.800;2023-05-10T00:30:27;0.60;;;0.60;;
6642;SDS011;3357;48.050;7.800;2023-05-10T00:32:53;0.70;;;0.70;;
6642;SDS011;3357;48.050;7.800;2023-05-10T00:35:18;2.70;;;0.70;;
6642;SDS011;3357;48.050;7.800;2023-05-10T00:37:43;4.10;;;0.70;;
6642;SDS011;3357;48.050;7.800;2023-05-10T00:40:09;1.20;;;0.80;;
6642;SDS011;3357;48.050;7.800;2023-05-10T00:42:35;6.83;;;1.83;;
6642;SDS011;3357;48.050;7.800;2023-05-10T00:45:00;0.70;;;0.70;;
6642;SDS011;3357;48.050;7.800;2023-05-10T00:47:25;2.30;;;0.60;;
6642;SDS011;3357;48.050;7.800;2023-05-10T00:49:50;4.20;;;0.97;;
6642;SDS011;3357;48.050;7.800;2023-05-10T00:52:16;2.07;;;0.90;;
6642;SDS011;3357;48.050;7.800;2023-05-10T00:54:41;0.60;;;0.60;;
6642;SDS011;3357;48.050;7.800;2023-05-10T00:57:07;0.70;;;0.60;;
6642;SDS011;3357;48.050;7.800;2023-05-10T00:59:32;1.47;;;0.70;;
6642;SDS011;3357;48.050;7.800;2023-05-10T01:01:57;0.70;;;0.70;;
6642;SDS011;3357;48.050;7.800;2023-05-10T01:04:23;1.17;;;0.63;;
6642;SDS011;3357;48.050;7.800;2023-05-10T01:06:50;6.03;;;0.80;;
6642;SDS011;3357;48.050;7.800;2023-05-10T01:09:16;0.60;;;0.60;;
6642;SDS011;3357;48.050;7.800;2023-05-10T01:11:42;0.60;;;0.60;;
6642;SDS011;3357;48.050;7.800;2023-05-10T01:14:07;0.67;;;0.67;;
6642;SDS011;3357;48.050;7.800;2023-05-10T01:16:34;1.23;;;0.80;;
6642;SDS011;3357;48.050;7.800;2023-05-10T01:19:03;0.70;;;0.60;;
6642;SDS011;3357;48.050;7.800;2023-05-10T01:24:48;0.63;;;0.63;;
6642;SDS011;3357;48.050;7.800;2023-05-10T01:30:34;0.70;;;0.70;;
6642;SDS011;3357;48.050;7.800;2023-05-10T01:35:51;0.80;;;0.80;;
6642;SDS011;3357;48.050;7.800;2023-05-10T01:40:48;0.70;;;0.70;;
6642;SDS011;3357;48.050;7.800;2023-05-10T01:43:35;4.27;;;0.70;;
6642;SDS011;3357;48.050;7.800;2023-05-10T01:46:07;0.80;;;0.80;;
6642;SDS011;3357;48.050;7.800;2023-05-10T01:48:37;1.87;;;0.80;;
6642;SDS011;3357;48.050;7.800;2023-05-10T01:51:18;2.10;;;0.60;;
6642;SDS011;3357;48.050;7.800;2023-05-10T01:53:46;1.17;;;0.70;;
6642;SDS011;3357;48.050;7.800;2023-05-10T01:56:12;2.60;;;0.80;;
6642;SDS011;3357;48.050;7.800;2023-05-10T01:58:39;0.60;;;0.60;;
6642;SDS011;3357;48.050;7.800;2023-05-10T02:01:05;0.67;;;0.67;;
6642;SDS011;3357;48.050;7.800;2023-05-10T02:03:31;1.70;;;0.67;;
6642;SDS011;3357;48.050;7.800;2023-05-10T02:05:57;0.60;;;0.60;;
6642;SDS011;3357;48.050;7.800;2023-05-10T02:08:22;1.13;;;0.70;;
6642;SDS011;3357;48.050;7.800;2023-05-10T02:10:49;1.57;;;0.80;;
6642;SDS011;3357;48.050;7.800;2023-05-10T02:13:17;3.70;;;0.77;;
6642;SDS011;3357;48.050;7.800;2023-05-10T02:15:43;0.90;;;0.90;;
6642;SDS011;3357;48.050;7.800;2023-05-10T02:18:09;1.30;;;0.90;;
6642;SDS011;3357;48.050;7.800;2023-05-10T02:20:35;2.43;;;0.93;;
6642;SDS011;3357;48.050;7.800;2023-05-10T02:23:02;1.80;;;0.70;;
6642;SDS011;3357;48.050;7.800;2023-05-10T02:25:28;0.90;;;0.70;;
6642;SDS011;3357;48.050;7.800;2023-05-10T02:27:54;0.70;;;0.70;;
6642;SDS011;3357;48.050;7.800;2023-05-10T02:30:21;0.60;;;0.60;;
6642;SDS011;3357;48.050;7.800;2023-05-10T02:32:47;0.70;;;0.70;;
6642;SDS011;3357;48.050;7.800;2023-05-10T02:35:14;0.83;;;0.80;;
6642;SDS011;3357;48.050;7.800;2023-05-10T02:37:40;0.97;;;0.70;;
6642;SDS011;3357;48.050;7.800;2023-05-10T02:40:06;1.47;;;0.90;;
6642;SDS011;3357;48.050;7.800;2023-05-10T02:42:33;0.70;;;0.70;;
6642;SDS011;3357;48.050;7.800;2023-05-10T02:45:01;0.60;;;0.60;;
6642;SDS011;3357;48.050;7.800;2023-05-10T02:47:28;2.63;;;0.70;;
6642;SDS011;3357;48.050;7.800;2023-05-10T02:49:53;0.70;;;0.70;;
6642;SDS011;3357;48.050;7.800;2023-05-10T02:52:21;1.70;;;0.60;;
6642;SDS011;3357;48.050;7.800;2023-05-10T02:54:49;4.10;;;0.80;;
6642;SDS011;3357;48.050;7.800;2023-05-10T02:57:16;0.73;;;0.73;;
6642;SDS011;3357;48.050;7.800;2023-05-10T02:59:44;1.50;;;0.73;;
6642;SDS011;3357;48.050;7.800;2023-05-10T03:02:10;1.90;;;0.70;;
6642;SDS011;3357;48.050;7.800;2023-05-10T03:04:37;0.73;;;0.73;;
6642;SDS011;3357;48.050;7.800;2023-05-10T03:07:02;0.87;;;0.80;;
6642;SDS011;3357;48.050;7.800;2023-05-10T03:09:27;0.70;;;0.70;;
6642;SDS011;3357;48.050;7.800;2023-05-10T03:14:53;0.80;;;0.80;;
6642;SDS011;3357;48.050;7.800;2023-05-10T03:17:35;0.70;;;0.63;;
6642;SDS011;3357;48.050;7.800;2023-05-10T03:20:08;5.57;;;0.90;;
6642;SDS011;3357;48.050;7.800;2023-05-10T03:22:40;0.90;;;0.80;;
6642;SDS011;3357;48.050;7.800;2023-05-10T03:25:10;1.03;;;0.80;;
6642;SDS011;3357;48.050;7.800;2023-05-10T03:27:36;0.90;;;0.90;;
6642;SDS011;3357;48.050;7.800;2023-05-10T03:30:04;2.83;;;0.80;;
6642;SDS011;3357;48.050;7.800;2023-05-10T03:32:30;2.60;;;0.90;;
6642;SDS011;3357;48.050;7.800;2023-05-10T03:34:59;2.93;;;0.87;;
6642;SDS011;3357;48.050;7.800;2023-05-10T03:37:24;1.10;;;1.00;;
6642;SDS011;3357;48.050;7.800;2023-05-10T03:39:49;0.80;;;0.80;;
6642;SDS011;3357;48.050;7.800;2023-05-10T03:42:14;0.80;;;0.80;;
6642;SDS011;3357;48.050;7.800;2023-05-10T03:44:40;0.80;;;0.80;;
6642;SDS011;3357;48.050;7.800;2023-05-10T03:47:05;0.97;;;0.90;;
6642;SDS011;3357;48.050;7.800;2023-05-10T03:49:31;1.00;;;1.00;;
6642;SDS011;3357;48.050;7.800;2023-05-10T03:51:56;1.17;;;1.00;;
6642;SDS011;3357;48.050;7.800;2023-05-10T03:54:21;1.20;;;0.90;;
6642;SDS011;3357;48.050;7.800;2023-05-10T03:56:46;0.80;;;0.80;;
6642;SDS011;3357;48.050;7.800;2023-05-10T03:59:13;2.27;;;0.93;;
6642;SDS011;3357;48.050;7.800;2023-05-10T04:01:38;6.50;;;3.00;;
6642;SDS011;3357;48.050;7.800;2023-05-10T04:04:03;0.80;;;0.80;;
6642;SDS011;3357;48.050;7.800;2023-05-10T04:06:29;1.33;;;1.00;;
6642;SDS011;3357;48.050;7.800;2023-05-10T04:08:54;3.17;;;1.03;;
6642;SDS011;3357;48.050;7.800;2023-05-10T04:11:20;3.43;;;0.90;;
6642;SDS011;3357;48.050;7.800;2023-05-10T04:13:46;0.97;;;0.97;;
6642;SDS011;3357;48.050;7.800;2023-05-10T04:16:12;1.00;;;0.90;;
6642;SDS011;3357;48.050;7.800;2023-05-10T04:18:37;0.80;;;0.80;;
6642;SDS011;3357;48.050;7.800;2023-05-10T04:21:02;1.17;;;1.07;;
6642;SDS011;3357;48.050;7.800;2023-05-10T04:23:28;0.70;;;0.70;;
6642;SDS011;3357;48.050;7.800;2023-05-10T04:25:59;0.90;;;0.90;;
6642;SDS011;3357;48.050;7.800;2023-05-10T04:28:25;3.90;;;0.80;;
6642;SDS011;3357;48.050;7.800;2023-05-10T04:30:50;0.80;;;0.80;;
6642;SDS011;3357;48.050;7.800;2023-05-10T04:33:16;0.90;;;0.90;;
6642;SDS011;3357;48.050;7.800;2023-05-10T04:35:41;3.07;;;0.80;;
6642;SDS011;3357;48.050;7.800;2023-05-10T04:38:06;0.83;;;0.83;;
6642;SDS011;3357;48.050;7.800;2023-05-10T04:40:32;3.60;;;0.90;;
6642;SDS011;3357;48.050;7.800;2023-05-10T04:42:57;0.90;;;0.90;;
6642;SDS011;3357;48.050;7.800;2023-05-10T04:45:22;0.80;;;0.80;;
6642;SDS011;3357;48.050;7.800;2023-05-10T04:47:48;1.13;;;0.80;;
6642;SDS011;3357;48.050;7.800;2023-05-10T04:50:13;0.90;;;0.90;;
6642;SDS011;3357;48.050;7.800;2023-05-10T04:52:38;2.03;;;1.00;;
6642;SDS011;3357;48.050;7.800;2023-05-10T04:55:03;0.87;;;0.80;;
6642;SDS011;3357;48.050;7.800;2023-05-10T04:57:29;5.27;;;0.83;;
6642;SDS011;3357;48.050;7.800;2023-05-10T04:59:54;0.90;;;0.90;;
6642;SDS011;3357;48.050;7.800;2023-05-10T05:02:20;2.70;;;1.10;;
6642;SDS011;3357;48.050;7.800;2023-05-10T05:04:45;3.63;;;1.20;;
6642;SDS011;3357;48.050;7.800;2023-05-10T05:07:11;2.00;;;1.00;;
6642;SDS011;3357;48.050;7.800;2023-05-10T05:09:36;1.60;;;1.13;;
6642;SDS011;3357;48.050;7.800;2023-05-10T05:12:01;0.93;;;0.93;;
6642;SDS011;3357;48.050;7.800;2023-05-10T05:14:27;1.73;;;1.07;;
6642;SDS011;3357;48.050;7.800;2023-05-10T05:16:52;1.07;;;0.90;;
6642;SDS011;3357;48.050;7.800;2023-05-10T05:19:17;1.93;;;1.10;;
6642;SDS011;3357;48.050;7.800;2023-05-10T05:21:43;1.37;;;1.17;;
6642;SDS011;3357;48.050;7.800;2023-05-10T05:24:08;1.67;;;1.00;;
6642;SDS011;3357;48.050;7.800;2023-05-10T05:26:35;2.50;;;1.30;;
6642;SDS011;3357;48.050;7.800;2023-05-10T05:29:00;3.03;;;1.00;;
6642;SDS011;3357;48.050;7.800;2023-05-10T05:31:25;1.83;;;1.07;;
6642;SDS011;3357;48.050;7.800;2023-05-10T05:33:50;1.83;;;1.00;;
6642;SDS011;3357;48.050;7.800;2023-05-10T05:36:16;5.03;;;1.20;;
6642;SDS011;3357;48.050;7.800;2023-05-10T05:38:41;1.20;;;1.07;;
6642;SDS011;3357;48.050;7.800;2023-05-10T05:41:07;1.20;;;1.10;;
6642;SDS011;3357;48.050;7.800;2023-05-10T05:43:32;1.10;;;1.10;;
6642;SDS011;3357;48.050;7.800;2023-05-10T05:45:58;3.07;;;0.90;;
6642;SDS011;3357;48.050;7.800;2023-05-10T05:48:23;1.67;;;1.37;;
6642;SDS011;3357;48.050;7.800;2023-05-10T05:50:48;1.03;;;1.03;;
6642;SDS011;3357;48.050;7.800;2023-05-10T05:53:14;1.20;;;1.20;;
6642;SDS011;3357;48.050;7.800;2023-05-10T05:55:39;2.73;;;1.20;;
6642;SDS011;3357;48.050;7.800;2023-05-10T05:58:05;1.43;;;1.20;;
6642;SDS011;3357;48.050;7.800;2023-05-10T06:00:30;1.10;;;1.10;;
6642;SDS011;3357;48.050;7.800;2023-05-10T06:02:56;1.20;;;1.10;;
6642;SDS011;3357;48.050;7.800;2023-05-10T06:05:21;6.80;;;1.17;;
6642;SDS011;3357;48.050;7.800;2023-05-10T06:07:46;2.80;;;1.40;;
6642;SDS011;3357;48.050;7.800;2023-05-10T06:10:11;1.37;;;1.10;;
6642;SDS011;3357;48.050;7.800;2023-05-10T06:12:37;4.00;;;1.10;;
6642;SDS011;3357;48.050;7.800;2023-05-10T06:15:03;1.10;;;1.00;;
6642;SDS011;3357;48.050;7.800;2023-05-10T06:17:28;2.60;;;1.20;;
6642;SDS011;3357;48.050;7.800;2023-05-10T06:19:54;4.97;;;1.17;;
6642;SDS011;3357;48.050;7.800;2023-05-10T06:22:19;1.93;;;1.00;;
6642;SDS011;3357;48.050;7.800;2023-05-10T06:24:44;2.97;;;1.20;;
6642;SDS011;3357;48.050;7.800;2023-05-10T06:27:10;1.10;;;1.00;;
6642;SDS011;3357;48.050;7.800;2023-05-10T06:29:35;2.83;;;1.07;;
6642;SDS011;3357;48.050;7.800;2023-05-10T06:32:00;2.33;;;0.93;;
6642;SDS011;3357;48.050;7.800;2023-05-10T06:34:26;1.90;;;0.80;;
6642;SDS011;3357;48.050;7.800;2023-05-10T06:36:51;3.33;;;1.10;;
6642;SDS011;3357;48.050;7.800;2023-05-10T06:39:16;1.23;;;1.13;;
6642;SDS011;3357;48.050;7.800;2023-05-10T06:41:42;1.67;;;1.00;;
6642;SDS011;3357;48.050;7.800;2023-05-10T06:44:07;1.43;;;1.10;;
6642;SDS011;3357;48.050;7.800;2023-05-10T06:46:33;1.87;;;0.97;;
6642;SDS011;3357;48.050;7.800;2023-05-10T06:48:58;1.13;;;1.13;;
6642;SDS011;3357;48.050;7.800;2023-05-10T06:51:23;5.57;;;1.10;;
6642;SDS011;3357;48.050;7.800;2023-05-10T06:53:49;3.53;;;1.00;;
6642;SDS011;3357;48.050;7.800;2023-05-10T06:56:14;3.33;;;1.30;;
6642;SDS011;3357;48.050;7.800;2023-05-10T06:58:40;5.20;;;1.60;;
6642;SDS011;3357;48.050;7.800;2023-05-10T07:01:05;2.40;;;1.10;;
6642;SDS011;3357;48.050;7.800;2023-05-10T07:03:31;2.13;;;1.10;;
6642;SDS011;3357;48.050;7.800;2023-05-10T07:06:03;1.23;;;1.00;;
6642;SDS011;3357;48.050;7.800;2023-05-10T07:08:32;2.30;;;1.20;;
6642;SDS011;3357;48.050;7.800;2023-05-10T07:11:01;11.97;;;1.53;;
6642;SDS011;3357;48.050;7.800;2023-05-10T07:13:28;3.07;;;1.60;;
6642;SDS011;3357;48.050;7.800;2023-05-10T07:15:54;3.40;;;1.40;;
6642;SDS011;3357;48.050;7.800;2023-05-10T07:18:19;2.63;;;1.50;;
6642;SDS011;3357;48.050;7.800;2023-05-10T07:20:45;2.80;;;1.60;;
6642;SDS011;3357;48.050;7.800;2023-05-10T07:23:10;2.23;;;1.33;;
6642;SDS011;3357;48.050;7.800;2023-05-10T07:25:36;3.00;;;1.67;;
6642;SDS011;3357;48.050;7.800;2023-05-10T07:28:01;3.10;;;1.70;;
6642;SDS011;3357;48.050;7.800;2023-05-10T07:30:26;2.30;;;1.50;;
6642;SDS011;3357;48.050;7.800;2023-05-10T07:32:52;2.03;;;1.20;;
6642;SDS011;3357;48.050;7.800;2023-05-10T07:35:17;2.70;;;1.10;;
6642;SDS011;3357;48.050;7.800;2023-05-10T07:37:42;4.67;;;1.40;;
6642;SDS011;3357;48.050;7.800;2023-05-10T07:40:08;2.00;;;1.17;;
6642;SDS011;3357;48.050;7.800;2023-05-10T07:42:33;1.77;;;1.43;;
6642;SDS011;3357;48.050;7.800;2023-05-10T07:44:59;1.83;;;1.37;;
6642;SDS011;3357;48.050;7.800;2023-05-10T07:47:24;2.53;;;1.33;;
6642;SDS011;3357;48.050;7.800;2023-05-10T07:49:50;6.37;;;1.40;;
6642;SDS011;3357;48.050;7.800;2023-05-10T07:52:17;2.47;;;1.37;;
6642;SDS011;3357;48.050;7.800;2023-05-10T07:54:42;3.37;;;1.40;;
6642;SDS011;3357;48.050;7.800;2023-05-10T07:57:07;1.37;;;1.20;;
6642;SDS011;3357;48.050;7.800;2023-05-10T07:59:33;1.17;;;1.17;;
6642;SDS011;3357;48.050;7.800;2023-05-10T08:01:58;1.87;;;1.73;;
6642;SDS011;3357;48.050;7.800;2023-05-10T08:04:24;4.27;;;1.43;;
6642;SDS011;3357;48.050;7.800;2023-05-10T08:06:49;4.20;;;1.30;;
6642;SDS011;3357;48.050;7.800;2023-05-10T08:09:14;3.77;;;1.40;;
6642;SDS011;3357;48.050;7.800;2023-05-10T08:11:40;0.90;;;0.90;;
6642;SDS011;3357;48.050;7.800;2023-05-10T08:14:06;1.67;;;1.10;;
6642;SDS011;3357;48.050;7.800;2023-05-10T08:16:31;4.00;;;1.17;;
6642;SDS011;3357;48.050;7.800;2023-05-10T08:18:57;2.40;;;1.10;;
6642;SDS011;3357;48.050;7.800;2023-05-10T08:21:22;3.37;;;1.20;;
6642;SDS011;3357;48.050;7.800;2023-05-10T08:23:47;3.60;;;1.00;;
6642;SDS011;3357;48.050;7.800;2023-05-10T08:26:13;3.03;;;1.00;;
6642;SDS011;3357;48.050;7.800;2023-05-10T08:28:39;2.17;;;1.10;;
6642;SDS011;3357;48.050;7.800;2023-05-10T08:31:05;1.30;;;0.90;;
6642;SDS011;3357;48.050;7.800;2023-05-10T08:33:30;0.90;;;0.90;;
6642;SDS011;3357;48.050;7.800;2023-05-10T08:35:55;1.53;;;0.90;;
6642;SDS011;3357;48.050;7.800;2023-05-10T08:38:20;1.03;;;0.90;;
6642;SDS011;3357;48.050;7.800;2023-05-10T08:40:46;1.50;;;0.83;;
6642;SDS011;3357;48.050;7.800;2023-05-10T08:43:12;1.17;;;1.17;;
6642;SDS011;3357;48.050;7.800;2023-05-10T08:45:40;1.50;;;1.00;;
6642;SDS011;3357;48.050;7.800;2023-05-10T08:48:12;0.87;;;0.87;;
6642;SDS011;3357;48.050;7.800;2023-05-10T08:50:39;1.67;;;0.80;;
6642;SDS011;3357;48.050;7.800;2023-05-10T08:53:12;2.00;;;1.00;;
6642;SDS011;3357;48.050;7.800;2023-05-10T08:55:38;0.93;;;0.73;;
6642;SDS011;3357;48.050;7.800;2023-05-10T08:58:05;1.60;;;0.97;;
6642;SDS011;3357;48.050;7.800;2023-05-10T09:00:31;2.23;;;0.90;;
6642;SDS011;3357;48.050;7.800;2023-05-10T09:02:57;2.77;;;0.90;;
6642;SDS011;3357;48.050;7.800;2023-05-10T09:05:23;0.63;;;0.63;;
6642;SDS011;3357;48.050;7.800;2023-05-10T09:07:48;2.20;;;1.00;;
6642;SDS011;3357;48.050;7.800;2023-05-10T09:10:13;2.40;;;0.70;;
6642;SDS011;3357;48.050;7.800;2023-05-10T09:12:40;7.23;;;0.83;;
6642;SDS011;3357;48.050;7.800;2023-05-10T09:15:05;2.67;;;1.23;;
6642;SDS011;3357;48.050;7.800;2023-05-10T09:17:32;5.00;;;0.90;;
6642;SDS011;3357;48.050;7.800;2023-05-10T09:19:58;1.17;;;0.73;;
6642;SDS011;3357;48.050;7.800;2023-05-10T09:22:24;1.90;;;0.80;;
6642;SDS011;3357;48.050;7.800;2023-05-10T09:25:12;1.63;;;1.10;;
6642;SDS011;3357;48.050;7.800;2023-05-10T09:27:37;4.53;;;0.90;;
6642;SDS011;3357;48.050;7.800;2023-05-10T09:30:04;0.70;;;0.67;;
6642;SDS011;3357;48.050;7.800;2023-05-10T09:32:40;5.40;;;0.90;;
6642;SDS011;3357;48.050;7.800;2023-05-10T09:35:10;4.03;;;0.90;;
6642;SDS011;3357;48.050;7.800;2023-05-10T09:37:40;1.17;;;0.70;;
6642;SDS011;3357;48.050;7.800;2023-05-10T09:40:08;2.53;;;0.90;;
6642;SDS011;3357;48.050;7.800;2023-05-10T09:42:36;5.93;;;0.87;;
6642;SDS011;3357;48.050;7.800;2023-05-10T09:45:05;1.50;;;0.80;;
6642;SDS011;3357;48.050;7.800;2023-05-10T09:47:34;2.10;;;0.70;;
6642;SDS011;3357;48.050;7.800;2023-05-10T09:50:00;2.40;;;0.93;;
6642;SDS011;3357;48.050;7.800;2023-05-10T09:52:28;0.77;;;0.77;;
6642;SDS011;3357;48.050;7.800;2023-05-10T09:54:54;3.90;;;1.10;;
6642;SDS011;3357;48.050;7.800;2023-05-10T09:57:20;7.57;;;1.53;;
6642;SDS011;3357;48.050;7.800;2023-05-10T09:59:47;7.93;;;1.20;;
6642;SDS011;3357;48.050;7.800;2023-05-10T10:02:12;3.43;;;1.20;;
6642;SDS011;3357;48.050;7.800;2023-05-10T10:04:41;4.90;;;2.17;;
6642;SDS011;3357;48.050;7.800;2023-05-10T10:07:07;2.27;;;1.20;;
6642;SDS011;3357;48.050;7.800;2023-05-10T10:09:33;2.20;;;1.27;;
6642;SDS011;3357;48.050;7.800;2023-05-10T10:12:00;3.23;;;1.43;;
6642;SDS011;3357;48.050;7.800;2023-05-10T10:14:25;6.23;;;1.23;;
6642;SDS011;3357;48.050;7.800;2023-05-10T10:16:51;0.73;;;0.70;;
6642;SDS011;3357;48.050;7.800;2023-05-10T10:19:17;0.80;;;0.67;;
6642;SDS011;3357;48.050;7.800;2023-05-10T10:21:44;0.80;;;0.80;;
6642;SDS011;3357;48.050;7.800;2023-05-10T10:24:09;1.97;;;0.63;;
6642;SDS011;3357;48.050;7.800;2023-05-10T10:26:35;0.50;;;0.50;;
6642;SDS011;3357;48.050;7.800;2023-05-10T10:31:41;0.50;;;0.50;;
6642;SDS011;3357;48.050;7.800;2023-05-10T10:34:26;1.03;;;0.63;;
6642;SDS011;3357;48.050;7.800;2023-05-10T10:36:53;0.50;;;0.50;;
6642;SDS011;3357;48.050;7.800;2023-05-10T10:39:20;0.50;;;0.50;;
6642;SDS011;3357;48.050;7.800;2023-05-10T10:41:49;1.17;;;0.60;;
6642;SDS011;3357;48.050;7.800;2023-05-10T10:52:14;3.23;;;0.63;;
6642;SDS011;3357;48.050;7.800;2023-05-10T10:57:58;1.97;;;0.60;;
6642;SDS011;3357;48.050;7.800;2023-05-10T11:00:31;2.40;;;0.90;;
6642;SDS011;3357;48.050;7.800;2023-05-10T11:03:06;0.50;;;0.50;;
6642;SDS011;3357;48.050;7.800;2023-05-10T11:08:45;3.13;;;1.00;;
6642;SDS011;3357;48.050;7.800;2023-05-10T11:11:08;1.73;;;0.50;;
6642;SDS011;3357;48.050;7.800;2023-05-10T11:13:34;1.03;;;0.57;;
6642;SDS011;3357;48.050;7.800;2023-05-10T11:16:22;0.63;;;0.60;;
6642;SDS011;3357;48.050;7.800;2023-05-10T11:21:23;1.50;;;0.80;;
6642;SDS011;3357;48.050;7.800;2023-05-10T11:23:49;4.83;;;0.73;;
6642;SDS011;3357;48.050;7.800;2023-05-10T11:26:16;0.40;;;0.40;;
6642;SDS011;3357;48.050;7.800;2023-05-10T11:28:43;0.90;;;0.60;;
6642;SDS011;3357;48.050;7.800;2023-05-10T11:31:08;1.70;;;0.60;;
6642;SDS011;3357;48.050;7.800;2023-05-10T11:33:46;7.57;;;0.63;;
6642;SDS011;3357;48.050;7.800;2023-05-10T11:36:17;5.60;;;0.70;;
6642;SDS011;3357;48.050;7.800;2023-05-10T11:38:44;1.00;;;0.60;;
6642;SDS011;3357;48.050;7.800;2023-05-10T11:41:10;0.80;;;0.60;;
6642;SDS011;3357;48.050;7.800;2023-05-10T11:43:37;1.80;;;0.50;;
6642;SDS011;3357;48.050;7.800;2023-05-10T11:46:04;2.73;;;0.90;;
6642;SDS011;3357;48.050;7.800;2023-05-10T11:48:31;3.30;;;0.70;;
6642;SDS011;3357;48.050;7.800;2023-05-10T11:50:56;3.63;;;0.80;;
6642;SDS011;3357;48.050;7.800;2023-05-10T11:53:22;2.67;;;0.70;;
6642;SDS011;3357;48.050;7.800;2023-05-10T11:55:48;2.37;;;0.90;;
6642;SDS011;3357;48.050;7.800;2023-05-10T11:58:13;3.40;;;0.80;;
6642;SDS011;3357;48.050;7.800;2023-05-10T12:00:38;2.27;;;0.77;;
6642;SDS011;3357;48.050;7.800;2023-05-10T12:03:04;2.50;;;0.80;;
6642;SDS011;3357;48.050;7.800;2023-05-10T12:05:31;0.60;;;0.60;;
6642;SDS011;3357;48.050;7.800;2023-05-10T12:11:06;2.00;;;0.60;;
6642;SDS011;3357;48.050;7.800;2023-05-10T12:13:32;2.67;;;0.70;;
6642;SDS011;3357;48.050;7.800;2023-05-10T12:15:58;0.93;;;0.60;;
6642;SDS011;3357;48.050;7.800;2023-05-10T12:18:23;1.17;;;0.50;;
6642;SDS011;3357;48.050;7.800;2023-05-10T12:20:52;0.87;;;0.60;;
6642;SDS011;3357;48.050;7.800;2023-05-10T12:23:18;3.23;;;0.93;;
6642;SDS011;3357;48.050;7.800;2023-05-10T12:25:45;0.63;;;0.50;;
6642;SDS011;3357;48.050;7.800;2023-05-10T12:28:10;1.80;;;0.50;;
6642;SDS011;3357;48.050;7.800;2023-05-10T12:30:36;1.80;;;0.97;;
6642;SDS011;3357;48.050;7.800;2023-05-10T12:33:12;2.73;;;0.90;;
6642;SDS011;3357;48.050;7.800;2023-05-10T12:35:58;1.20;;;0.50;;
6642;SDS011;3357;48.050;7.800;2023-05-10T12:38:43;3.20;;;0.70;;
6642;SDS011;3357;48.050;7.800;2023-05-10T12:41:13;1.20;;;0.50;;
6642;SDS011;3357;48.050;7.800;2023-05-10T12:43:39;0.97;;;0.50;;
6642;SDS011;3357;48.050;7.800;2023-05-10T12:46:09;0.57;;;0.53;;
6642;SDS011;3357;48.050;7.800;2023-05-10T12:48:35;0.67;;;0.43;;
6642;SDS011;3357;48.050;7.800;2023-05-10T12:51:02;2.30;;;0.53;;
6642;SDS011;3357;48.050;7.800;2023-05-10T12:53:27;0.53;;;0.50;;
6642;SDS011;3357;48.050;7.800;2023-05-10T12:55:53;1.53;;;0.50;;
6642;SDS011;3357;48.050;7.800;2023-05-10T12:58:18;1.17;;;0.40;;
6642;SDS011;3357;48.050;7.800;2023-05-10T13:00:44;0.53;;;0.50;;
6642;SDS011;3357;48.050;7.800;2023-05-10T13:03:10;0.70;;;0.40;;
6642;SDS011;3357;48.050;7.800;2023-05-10T13:05:35;0.80;;;0.80;;
6642;SDS011;3357;48.050;7.800;2023-05-10T13:08:01;0.40;;;0.40;;
6642;SDS011;3357;48.050;7.800;2023-05-10T13:10:27;2.77;;;0.70;;
6642;SDS011;3357;48.050;7.800;2023-05-10T13:12:54;0.40;;;0.37;;
6642;SDS011;3357;48.050;7.800;2023-05-10T13:15:19;0.50;;;0.50;;
6642;SDS011;3357;48.050;7.800;2023-05-10T13:17:45;1.57;;;0.60;;
6642;SDS011;3357;48.050;7.800;2023-05-10T13:20:10;2.43;;;0.40;;
6642;SDS011;3357;48.050;7.800;2023-05-10T13:22:35;0.60;;;0.40;;
6642;SDS011;3357;48.050;7.800;2023-05-10T13:25:01;0.40;;;0.40;;
6642;SDS011;3357;48.050;7.800;2023-05-10T13:27:27;0.40;;;0.40;;
6642;SDS011;3357;48.050;7.800;2023-05-10T13:29:52;0.47;;;0.47;;
6642;SDS011;3357;48.050;7.800;2023-05-10T13:32:17;1.00;;;0.40;;
6642;SDS011;3357;48.050;7.800;2023-05-10T13:34:43;1.17;;;0.50;;
6642;SDS011;3357;48.050;7.800;2023-05-10T13:37:08;4.40;;;0.50;;
6642;SDS011;3357;48.050;7.800;2023-05-10T13:39:34;1.57;;;0.50;;
6642;SDS011;3357;48.050;7.800;2023-05-10T13:41:59;0.60;;;0.50;;
6642;SDS011;3357;48.050;7.800;2023-05-10T13:44:24;1.10;;;0.40;;
6642;SDS011;3357;48.050;7.800;2023-05-10T13:46:50;0.83;;;0.50;;
6642;SDS011;3357;48.050;7.800;2023-05-10T13:49:15;0.50;;;0.40;;
6642;SDS011;3357;48.050;7.800;2023-05-10T13:51:41;0.67;;;0.50;;
6642;SDS011;3357;48.050;7.800;2023-05-10T13:54:08;0.63;;;0.50;;
6642;SDS011;3357;48.050;7.800;2023-05-10T13:56:33;0.40;;;0.40;;
6642;SDS011;3357;48.050;7.800;2023-05-10T13:58:59;0.97;;;0.50;;
6642;SDS011;3357;48.050;7.800;2023-05-10T14:01:25;0.40;;;0.40;;
6642;SDS011;3357;48.050;7.800;2023-05-10T14:03:50;1.63;;;0.50;;
6642;SDS011;3357;48.050;7.800;2023-05-10T14:06:15;0.50;;;0.50;;
6642;SDS011;3357;48.050;7.800;2023-05-10T14:08:40;0.73;;;0.40;;
6642;SDS011;3357;48.050;7.800;2023-05-10T14:11:06;2.33;;;0.60;;
6642;SDS011;3357;48.050;7.800;2023-05-10T14:13:31;5.20;;;0.43;;
6642;SDS011;3357;48.050;7.800;2023-05-10T14:15:56;2.83;;;0.50;;
6642;SDS011;3357;48.050;7.800;2023-05-10T14:18:23;3.63;;;0.50;;
6642;SDS011;3357;48.050;7.800;2023-05-10T14:20:48;0.40;;;0.40;;
6642;SDS011;3357;48.050;7.800;2023-05-10T14:23:14;0.30;;;0.30;;
6642;SDS011;3357;48.050;7.800;2023-05-10T14:25:40;2.13;;;0.50;;
6642;SDS011;3357;48.050;7.800;2023-05-10T14:28:05;0.47;;;0.43;;
6642;SDS011;3357;48.050;7.800;2023-05-10T14:30:31;0.70;;;0.50;;
6642;SDS011;3357;48.050;7.800;2023-05-10T14:32:56;0.60;;;0.40;;
6642;SDS011;3357;48.050;7.800;2023-05-10T14:35:23;0.53;;;0.53;;
6642;SDS011;3357;48.050;7.800;2023-05-10T14:37:48;2.73;;;0.40;;
6642;SDS011;3357;48.050;7.800;2023-05-10T14:40:13;0.53;;;0.40;;
6642;SDS011;3357;48.050;7.800;2023-05-10T14:42:40;1.03;;;0.40;;
6642;SDS011;3357;48.050;7.800;2023-05-10T14:45:05;0.83;;;0.40;;
6642;SDS011;3357;48.050;7.800;2023-05-10T14:47:30;0.50;;;0.40;;
6642;SDS011;3357;48.050;7.800;2023-05-10T14:49:56;6.77;;;0.40;;
6642;SDS011;3357;48.050;7.800;2023-05-10T14:52:21;0.40;;;0.40;;
6642;SDS011;3357;48.050;7.800;2023-05-10T14:54:46;1.90;;;0.50;;
6642;SDS011;3357;48.050;7.800;2023-05-10T14:57:11;0.30;;;0.30;;
6642;SDS011;3357;48.050;7.800;2023-05-10T14:59:37;0.50;;;0.50;;
6642;SDS011;3357;48.050;7.800;2023-05-10T15:02:03;0.40;;;0.40;;
6642;SDS011;3357;48.050;7.800;2023-05-10T15:04:29;0.50;;;0.50;;
6642;SDS011;3357;48.050;7.800;2023-05-10T15:06:54;0.47;;;0.40;;
6642;SDS011;3357;48.050;7.800;2023-05-10T15:09:23;0.40;;;0.40;;
6642;SDS011;3357;48.050;7.800;2023-05-10T15:11:49;1.33;;;0.60;;
6642;SDS011;3357;48.050;7.800;2023-05-10T15:14:14;2.30;;;0.60;;
6642;SDS011;3357;48.050;7.800;2023-05-10T15:16:40;4.67;;;0.50;;
6642;SDS011;3357;48.050;7.800;2023-05-10T15:19:05;1.07;;;0.60;;
6642;SDS011;3357;48.050;7.800;2023-05-10T15:21:30;2.43;;;0.60;;
6642;SDS011;3357;48.050;7.800;2023-05-10T15:23:59;0.40;;;0.40;;
6642;SDS011;3357;48.050;7.800;2023-05-10T15:26:25;0.50;;;0.50;;
6642;SDS011;3357;48.050;7.800;2023-05-10T15:28:51;0.70;;;0.50;;
6642;SDS011;3357;48.050;7.800;2023-05-10T15:31:17;1.00;;;0.40;;
6642;SDS011;3357;48.050;7.800;2023-05-10T15:33:42;0.40;;;0.40;;
6642;SDS011;3357;48.050;7.800;2023-05-10T15:36:08;0.53;;;0.40;;
6642;SDS011;3357;48.050;7.800;2023-05-10T15:38:33;0.50;;;0.40;;
6642;SDS011;3357;48.050;7.800;2023-05-10T15:40:58;0.40;;;0.40;;
6642;SDS011;3357;48.050;7.800;2023-05-10T15:43:23;0.40;;;0.40;;
6642;SDS011;3357;48.050;7.800;2023-05-10T15:45:49;0.40;;;0.40;;
6642;SDS011;3357;48.050;7.800;2023-05-10T15:48:14;0.70;;;0.50;;